createdAt,value
2022-12-14T00:00:37.355Z,20.10
2022-12-14T00:01:37.335Z,21.40
2022-12-14T00:02:37.443Z,21.10
2022-12-14T00:03:37.373Z,21.00
2022-12-14T00:04:37.323Z,23.40
2022-12-14T00:05:37.286Z,21.10
2022-12-14T00:06:37.279Z,20.90
2022-12-14T00:07:37.288Z,22.70
2022-12-14T00:08:41.662Z,22.60
2022-12-14T00:09:37.288Z,21.80
2022-12-14T00:10:37.246Z,22.20
2022-12-14T00:11:37.214Z,23.30
2022-12-14T00:12:37.212Z,23.60
2022-12-14T00:13:37.197Z,23.40
2022-12-14T00:14:37.262Z,24.20
2022-12-14T00:15:37.275Z,23.40
2022-12-14T00:16:37.174Z,23.40
2022-12-14T00:17:37.154Z,23.40
2022-12-14T00:18:37.150Z,24.60
2022-12-14T00:19:37.202Z,24.20
2022-12-14T00:20:37.138Z,23.60
2022-12-14T00:21:37.114Z,22.80
2022-12-14T00:22:37.123Z,23.10
2022-12-14T00:23:39.115Z,22.80
2022-12-14T00:24:37.178Z,22.90
2022-12-14T00:25:37.069Z,23.10
2022-12-14T00:26:37.062Z,23.40
2022-12-14T00:27:37.049Z,23.00
2022-12-14T00:28:37.056Z,22.80
2022-12-14T00:29:37.101Z,23.70
2022-12-14T00:30:37.041Z,23.50
2022-12-14T00:31:37.153Z,22.80
2022-12-14T00:32:37.013Z,22.30
2022-12-14T00:33:36.987Z,23.10
2022-12-14T00:34:37.064Z,22.20
2022-12-14T00:35:36.965Z,23.40
2022-12-14T00:36:36.977Z,23.70
2022-12-14T00:37:36.948Z,22.80
2022-12-14T00:38:36.920Z,22.00
2022-12-14T00:39:37.045Z,21.80
2022-12-14T00:40:36.905Z,24.00
2022-12-14T00:41:36.916Z,22.90
2022-12-14T00:42:36.883Z,23.70
2022-12-14T00:43:36.882Z,22.80
2022-12-14T00:44:36.863Z,23.60
2022-12-14T00:45:36.854Z,23.70
2022-12-14T00:46:36.912Z,23.60
2022-12-14T00:47:40.703Z,22.50
2022-12-14T00:48:36.828Z,22.80
2022-12-14T00:49:36.816Z,24.00
2022-12-14T00:50:36.796Z,23.00
2022-12-14T00:51:36.808Z,23.80
2022-12-14T00:52:36.773Z,24.00
2022-12-14T00:53:36.778Z,22.80
2022-12-14T00:54:36.756Z,23.70
2022-12-14T00:55:36.767Z,23.40
2022-12-14T00:56:36.754Z,23.70
2022-12-14T00:57:36.721Z,23.50
2022-12-14T00:58:36.725Z,23.50
2022-12-14T00:59:36.814Z,23.50
2022-12-14T01:00:36.723Z,23.50
2022-12-14T01:01:36.939Z,22.30
2022-12-14T01:02:36.695Z,22.80
2022-12-14T01:03:36.747Z,23.90
2022-12-14T01:04:36.647Z,23.30
2022-12-14T01:05:36.655Z,22.80
2022-12-14T01:06:36.703Z,22.80
2022-12-14T01:07:36.641Z,23.00
2022-12-14T01:08:36.604Z,22.80
2022-12-14T01:09:36.591Z,22.70
2022-12-14T01:10:36.583Z,23.00
2022-12-14T01:11:36.585Z,22.30
2022-12-14T01:12:36.581Z,22.70
2022-12-14T01:13:36.597Z,22.00
2022-12-14T01:14:36.538Z,22.00
2022-12-14T01:15:36.587Z,22.50
2022-12-14T01:16:37.407Z,22.50
2022-12-14T01:17:36.507Z,22.70
2022-12-14T01:18:36.498Z,22.50
2022-12-14T01:19:36.643Z,21.90
2022-12-14T01:20:36.484Z,21.80
2022-12-14T01:21:36.488Z,21.80
2022-12-14T01:22:36.448Z,21.70
2022-12-14T01:23:36.448Z,21.60
2022-12-14T01:24:36.428Z,21.40
2022-12-14T01:25:36.419Z,22.50
2022-12-14T01:26:36.418Z,21.40
2022-12-14T01:27:36.395Z,21.40
2022-12-14T01:28:36.388Z,21.90
2022-12-14T01:29:36.376Z,22.50
2022-12-14T01:30:36.365Z,22.30
2022-12-14T01:31:36.427Z,23.20
2022-12-14T01:32:36.360Z,21.80
2022-12-14T01:33:36.326Z,21.30
2022-12-14T01:34:36.316Z,20.70
2022-12-14T01:35:36.329Z,21.50
2022-12-14T01:36:36.320Z,21.70
2022-12-14T01:37:36.389Z,22.00
2022-12-14T01:38:36.286Z,20.80
2022-12-14T01:39:36.447Z,20.40
2022-12-14T01:40:36.362Z,20.80
2022-12-14T01:41:36.326Z,21.00
2022-12-14T01:42:36.241Z,21.60
2022-12-14T01:43:36.218Z,20.80
2022-12-14T01:44:36.222Z,20.70
2022-12-14T01:45:36.194Z,20.70
2022-12-14T01:46:36.313Z,20.00
2022-12-14T01:47:36.173Z,20.80
2022-12-14T01:48:36.231Z,20.70
2022-12-14T01:49:36.150Z,20.00
2022-12-14T01:50:36.250Z,19.50
2022-12-14T01:51:36.143Z,20.70
2022-12-14T01:52:36.211Z,20.30
2022-12-14T01:53:36.102Z,20.70
2022-12-14T01:54:36.153Z,19.20
2022-12-14T01:55:36.107Z,20.20
2022-12-14T01:56:36.266Z,20.40
2022-12-14T01:57:36.059Z,20.00
2022-12-14T01:58:36.178Z,20.50
2022-12-14T01:59:36.039Z,20.70
2022-12-14T02:00:36.179Z,21.20
2022-12-14T02:01:36.114Z,20.30
2022-12-14T02:02:36.496Z,19.60
2022-12-14T02:03:36.046Z,20.80
2022-12-14T02:04:35.986Z,19.80
2022-12-14T02:05:35.996Z,21.30
2022-12-14T02:06:35.967Z,20.40
2022-12-14T02:07:36.032Z,20.50
2022-12-14T02:08:35.945Z,20.50
2022-12-14T02:09:35.957Z,20.80
2022-12-14T02:10:35.925Z,20.40
2022-12-14T02:11:35.911Z,19.50
2022-12-14T02:12:35.937Z,20.00
2022-12-14T02:13:35.886Z,19.00
2022-12-14T02:14:35.875Z,20.60
2022-12-14T02:15:35.900Z,20.40
2022-12-14T02:16:35.918Z,20.80
2022-12-14T02:17:35.844Z,19.90
2022-12-14T02:18:35.836Z,20.00
2022-12-14T02:19:35.851Z,20.10
2022-12-14T02:20:35.804Z,21.10
2022-12-14T02:21:35.803Z,19.90
2022-12-14T02:22:35.803Z,19.70
2022-12-14T02:23:35.821Z,19.30
2022-12-14T02:24:35.803Z,20.60
2022-12-14T02:25:35.776Z,20.20
2022-12-14T02:26:35.773Z,20.30
2022-12-14T02:27:35.729Z,19.30
2022-12-14T02:28:35.760Z,19.60
2022-12-14T02:29:35.708Z,18.90
2022-12-14T02:30:35.699Z,20.20
2022-12-14T02:31:35.781Z,19.60
2022-12-14T02:32:35.678Z,18.50
2022-12-14T02:33:35.685Z,20.20
2022-12-14T02:34:35.665Z,19.40
2022-12-14T02:35:35.685Z,18.70
2022-12-14T02:36:35.632Z,19.30
2022-12-14T02:37:35.652Z,19.20
2022-12-14T02:38:35.640Z,19.30
2022-12-14T02:39:35.621Z,19.90
2022-12-14T02:40:35.593Z,18.90
2022-12-14T02:41:35.577Z,19.30
2022-12-14T02:42:35.565Z,19.40
2022-12-14T02:43:35.568Z,19.30
2022-12-14T02:44:35.597Z,18.80
2022-12-14T02:45:35.548Z,18.90
2022-12-14T02:46:35.540Z,18.90
2022-12-14T02:47:35.514Z,17.90
2022-12-14T02:48:35.519Z,18.70
2022-12-14T02:49:35.503Z,19.10
2022-12-14T02:50:35.534Z,18.50
2022-12-14T02:51:35.486Z,18.90
2022-12-14T02:52:35.501Z,19.30
2022-12-14T02:53:35.482Z,19.40
2022-12-14T02:54:35.449Z,18.00
2022-12-14T02:55:35.447Z,18.50
2022-12-14T02:56:35.420Z,18.60
2022-12-14T02:57:35.435Z,18.50
2022-12-14T02:58:35.401Z,18.10
2022-12-14T02:59:35.391Z,17.80
2022-12-14T03:00:35.445Z,19.00
2022-12-14T03:01:35.644Z,17.90
2022-12-14T03:02:35.516Z,18.30
2022-12-14T03:03:35.357Z,17.80
2022-12-14T03:04:35.338Z,17.80
2022-12-14T03:05:35.331Z,17.80
2022-12-14T03:06:35.339Z,17.90
2022-12-14T03:07:35.307Z,17.50
2022-12-14T03:08:35.294Z,17.00
2022-12-14T03:09:35.454Z,17.60
2022-12-14T03:10:35.284Z,16.90
2022-12-14T03:11:35.302Z,18.10
2022-12-14T03:12:35.263Z,17.30
2022-12-14T03:13:35.281Z,17.10
2022-12-14T03:14:35.233Z,17.60
2022-12-14T03:15:35.244Z,17.70
2022-12-14T03:16:35.365Z,17.10
2022-12-14T03:17:35.204Z,16.60
2022-12-14T03:18:35.195Z,17.70
2022-12-14T03:19:35.205Z,16.20
2022-12-14T03:20:35.173Z,17.10
2022-12-14T03:21:35.165Z,16.50
2022-12-14T03:22:35.151Z,16.90
2022-12-14T03:23:35.160Z,17.40
2022-12-14T03:24:35.167Z,16.80
2022-12-14T03:25:35.119Z,16.80
2022-12-14T03:26:35.120Z,17.20
2022-12-14T03:27:35.151Z,15.60
2022-12-14T03:28:35.087Z,16.40
2022-12-14T03:29:35.076Z,17.50
2022-12-14T03:30:58.772Z,16.70
2022-12-14T03:31:36.214Z,16.00
2022-12-14T03:32:35.047Z,16.60
2022-12-14T03:33:35.034Z,15.80
2022-12-14T03:34:35.023Z,16.70
2022-12-14T03:35:35.051Z,17.00
2022-12-14T03:36:35.056Z,16.00
2022-12-14T03:37:35.014Z,16.60
2022-12-14T03:38:35.026Z,16.20
2022-12-14T03:39:34.991Z,16.00
2022-12-14T03:40:35.001Z,16.30
2022-12-14T03:41:34.949Z,16.90
2022-12-14T03:42:34.952Z,15.90
2022-12-14T03:43:35.023Z,16.30
2022-12-14T03:44:39.067Z,15.90
2022-12-14T03:45:35.984Z,15.70
2022-12-14T03:46:34.909Z,16.40
2022-12-14T03:47:34.943Z,16.20
2022-12-14T03:48:34.893Z,15.60
2022-12-14T03:49:34.867Z,17.80
2022-12-14T03:50:34.880Z,16.00
2022-12-14T03:51:34.848Z,16.50
2022-12-14T03:52:34.832Z,16.70
2022-12-14T03:53:34.827Z,16.40
2022-12-14T03:54:34.822Z,16.20
2022-12-14T03:55:34.811Z,17.10
2022-12-14T03:56:34.824Z,17.20
2022-12-14T03:57:34.799Z,16.00
2022-12-14T03:58:34.794Z,16.40
2022-12-14T03:59:34.789Z,16.60
2022-12-14T04:00:34.788Z,16.00
2022-12-14T04:01:34.870Z,16.00
2022-12-14T04:02:39.192Z,16.60
2022-12-14T04:03:35.744Z,15.30
2022-12-14T04:04:34.704Z,16.60
2022-12-14T04:05:34.704Z,15.70
2022-12-14T04:06:34.693Z,17.10
2022-12-14T04:07:35.920Z,15.70
2022-12-14T04:08:34.683Z,15.50
2022-12-14T04:09:34.662Z,15.60
2022-12-14T04:10:34.667Z,15.70
2022-12-14T04:11:34.639Z,15.40
2022-12-14T04:12:34.621Z,15.30
2022-12-14T04:13:34.624Z,15.70
2022-12-14T04:14:34.603Z,16.00
2022-12-14T04:15:34.631Z,15.80
2022-12-14T04:16:34.630Z,15.20
2022-12-14T04:17:34.606Z,16.50
2022-12-14T04:18:34.595Z,16.20
2022-12-14T04:19:34.558Z,16.00
2022-12-14T04:20:34.558Z,15.20
2022-12-14T04:21:34.528Z,15.50
2022-12-14T04:22:34.536Z,16.50
2022-12-14T04:23:34.523Z,15.40
2022-12-14T04:24:34.494Z,15.60
2022-12-14T04:25:34.497Z,16.50
2022-12-14T04:26:34.490Z,16.10
2022-12-14T04:27:34.486Z,16.60
2022-12-14T04:28:34.481Z,16.10
2022-12-14T04:29:34.456Z,15.30
2022-12-14T04:30:34.454Z,15.50
2022-12-14T04:31:34.545Z,16.50
2022-12-14T04:32:34.478Z,15.80
2022-12-14T04:33:34.408Z,15.80
2022-12-14T04:34:34.395Z,16.20
2022-12-14T04:35:34.419Z,15.60
2022-12-14T04:36:34.383Z,15.60
2022-12-14T04:37:34.366Z,15.40
2022-12-14T04:38:34.341Z,14.80
2022-12-14T04:39:34.338Z,15.90
2022-12-14T04:40:34.357Z,14.90
2022-12-14T04:41:34.319Z,15.70
2022-12-14T04:42:34.887Z,15.70
2022-12-14T04:43:34.299Z,15.60
2022-12-14T04:44:34.321Z,15.20
2022-12-14T04:45:34.328Z,15.30
2022-12-14T04:46:40.214Z,15.50
2022-12-14T04:47:35.298Z,14.90
2022-12-14T04:48:34.248Z,15.40
2022-12-14T04:49:34.248Z,15.30
2022-12-14T04:50:34.248Z,15.20
2022-12-14T04:51:34.212Z,15.40
2022-12-14T04:52:34.226Z,15.20
2022-12-14T04:53:34.197Z,14.80
2022-12-14T04:54:34.176Z,14.60
2022-12-14T04:55:34.215Z,15.70
2022-12-14T04:56:34.152Z,14.60
2022-12-14T04:57:34.146Z,14.40
2022-12-14T04:58:34.169Z,14.40
2022-12-14T04:59:34.171Z,14.60
2022-12-14T05:00:34.161Z,14.30
2022-12-14T05:01:34.344Z,14.30
2022-12-14T05:02:34.185Z,14.30
2022-12-14T05:03:34.104Z,13.40
2022-12-14T05:04:34.077Z,14.20
2022-12-14T05:05:34.059Z,14.20
2022-12-14T05:06:34.179Z,13.90
2022-12-14T05:07:34.051Z,13.40
2022-12-14T05:08:34.024Z,13.80
2022-12-14T05:09:34.020Z,13.90
2022-12-14T05:10:34.019Z,12.90
2022-12-14T05:12:34.984Z,12.40
2022-12-14T05:13:34.006Z,12.60
2022-12-14T05:14:34.004Z,12.60
2022-12-14T05:15:33.948Z,13.20
2022-12-14T05:16:34.017Z,12.40
2022-12-14T05:17:33.954Z,12.30
2022-12-14T05:18:33.930Z,13.30
2022-12-14T05:19:33.940Z,13.20
2022-12-14T05:20:33.907Z,13.80
2022-12-14T05:21:33.894Z,12.50
2022-12-14T05:22:33.877Z,13.30
2022-12-14T05:23:33.885Z,13.00
2022-12-14T05:24:33.867Z,12.90
2022-12-14T05:25:33.845Z,13.50
2022-12-14T05:26:33.849Z,12.80
2022-12-14T05:27:33.830Z,13.00
2022-12-14T05:28:33.847Z,12.80
2022-12-14T05:29:33.811Z,11.90
2022-12-14T05:30:33.838Z,11.50
2022-12-14T05:31:33.779Z,10.70
2022-12-14T05:32:33.785Z,12.20
2022-12-14T05:33:33.776Z,11.40
2022-12-14T05:34:33.767Z,12.40
2022-12-14T05:35:33.766Z,11.90
2022-12-14T05:36:33.753Z,12.00
2022-12-14T05:37:33.716Z,12.60
2022-12-14T05:38:33.707Z,11.50
2022-12-14T05:39:33.708Z,11.20
2022-12-14T05:40:33.684Z,12.10
2022-12-14T05:41:33.700Z,12.20
2022-12-14T05:42:33.727Z,12.60
2022-12-14T05:43:33.651Z,11.70
2022-12-14T05:44:33.639Z,11.40
2022-12-14T05:45:33.650Z,12.30
2022-12-14T05:46:33.619Z,12.70
2022-12-14T05:47:33.620Z,12.40
2022-12-14T05:48:33.602Z,12.90
2022-12-14T05:49:33.584Z,12.80
2022-12-14T05:50:33.603Z,12.40
2022-12-14T05:51:33.597Z,12.70
2022-12-14T05:52:33.564Z,13.00
2022-12-14T05:53:33.544Z,13.10
2022-12-14T05:54:33.580Z,12.10
2022-12-14T05:55:33.521Z,12.90
2022-12-14T05:56:33.526Z,13.20
2022-12-14T05:57:33.526Z,14.20
2022-12-14T05:58:33.495Z,13.80
2022-12-14T05:59:33.489Z,12.80
2022-12-14T06:00:33.473Z,12.90
2022-12-14T06:01:33.497Z,12.80
2022-12-14T06:02:33.505Z,12.30
2022-12-14T06:03:33.464Z,13.10
2022-12-14T06:04:33.537Z,13.30
2022-12-14T06:05:33.437Z,13.10
2022-12-14T06:06:33.405Z,13.40
2022-12-14T06:07:33.429Z,14.30
2022-12-14T06:08:33.395Z,13.50
2022-12-14T06:09:33.372Z,13.50
2022-12-14T06:10:33.382Z,13.60
2022-12-14T06:11:33.886Z,13.30
2022-12-14T06:12:33.340Z,13.50
2022-12-14T06:13:33.333Z,14.30
2022-12-14T06:14:33.359Z,13.90
2022-12-14T06:15:34.231Z,14.10
2022-12-14T06:16:33.331Z,13.70
2022-12-14T06:17:33.284Z,14.80
2022-12-14T06:18:33.275Z,15.20
2022-12-14T06:19:33.284Z,14.20
2022-12-14T06:20:33.259Z,14.50
2022-12-14T06:21:33.264Z,15.40
2022-12-14T06:22:33.247Z,15.00
2022-12-14T06:23:33.239Z,14.60
2022-12-14T06:24:33.213Z,14.20
2022-12-14T06:25:33.196Z,15.10
2022-12-14T06:26:33.217Z,15.50
2022-12-14T06:27:33.180Z,15.10
2022-12-14T06:28:33.204Z,14.70
2022-12-14T06:29:33.161Z,14.00
2022-12-14T06:30:33.154Z,14.80
2022-12-14T06:31:33.177Z,14.40
2022-12-14T06:32:33.125Z,14.90
2022-12-14T06:33:33.115Z,14.70
2022-12-14T06:34:38.522Z,14.00
2022-12-14T06:35:34.097Z,15.30
2022-12-14T06:36:33.087Z,14.90
2022-12-14T06:37:33.072Z,15.30
2022-12-14T06:38:33.088Z,15.20
2022-12-14T06:39:33.080Z,14.70
2022-12-14T06:40:33.082Z,15.10
2022-12-14T06:41:33.028Z,15.30
2022-12-14T06:42:33.022Z,14.60
2022-12-14T06:43:33.035Z,14.70
2022-12-14T06:44:32.992Z,14.90
2022-12-14T06:45:33.008Z,15.00
2022-12-14T06:46:33.038Z,15.20
2022-12-14T06:47:32.966Z,15.80
2022-12-14T06:48:32.983Z,15.90
2022-12-14T06:49:32.949Z,15.60
2022-12-14T06:50:32.936Z,15.50
2022-12-14T06:51:32.942Z,17.30
2022-12-14T06:52:32.919Z,16.30
2022-12-14T06:53:32.903Z,15.60
2022-12-14T06:54:32.919Z,16.80
2022-12-14T06:55:32.907Z,16.20
2022-12-14T06:56:32.890Z,15.50
2022-12-14T06:57:32.870Z,14.80
2022-12-14T06:58:32.848Z,15.30
2022-12-14T06:59:32.840Z,16.30
2022-12-14T07:00:32.859Z,14.60
2022-12-14T07:01:32.997Z,15.90
2022-12-14T07:02:33.016Z,16.00
2022-12-14T07:03:33.068Z,16.70
2022-12-14T07:04:32.819Z,15.80
2022-12-14T07:05:32.775Z,15.90
2022-12-14T07:06:32.788Z,15.30
2022-12-14T07:07:32.771Z,16.20
2022-12-14T07:08:32.751Z,15.80
2022-12-14T07:09:32.734Z,17.00
2022-12-14T07:10:32.752Z,16.00
2022-12-14T07:11:32.797Z,16.70
2022-12-14T07:12:32.701Z,16.30
2022-12-14T07:13:32.697Z,17.10
2022-12-14T07:14:32.687Z,16.40
2022-12-14T07:15:32.724Z,17.00
2022-12-14T07:16:32.704Z,17.00
2022-12-14T07:17:32.658Z,16.80
2022-12-14T07:18:32.634Z,16.70
2022-12-14T07:19:32.644Z,17.00
2022-12-14T07:20:32.622Z,16.40
2022-12-14T07:21:32.616Z,16.90
2022-12-14T07:22:32.596Z,16.80
2022-12-14T07:23:32.958Z,16.90
2022-12-14T07:24:32.577Z,16.90
2022-12-14T07:25:32.618Z,16.00
2022-12-14T07:26:32.555Z,16.30
2022-12-14T07:27:32.569Z,16.10
2022-12-14T07:28:32.536Z,16.10
2022-12-14T07:29:34.852Z,15.60
2022-12-14T07:30:32.515Z,15.90
2022-12-14T07:31:32.526Z,16.90
2022-12-14T07:32:32.482Z,16.20
2022-12-14T07:33:32.473Z,16.00
2022-12-14T07:34:32.491Z,16.30
2022-12-14T07:35:32.455Z,16.30
2022-12-14T07:36:32.459Z,16.40
2022-12-14T07:37:32.434Z,17.00
2022-12-14T07:38:32.430Z,16.40
2022-12-14T07:39:32.437Z,15.90
2022-12-14T07:40:32.399Z,16.40
2022-12-14T07:41:32.432Z,15.50
2022-12-14T07:42:32.392Z,16.40
2022-12-14T07:43:32.400Z,16.30
2022-12-14T07:44:32.398Z,17.00
2022-12-14T07:45:32.369Z,16.70
2022-12-14T07:46:32.719Z,17.50
2022-12-14T07:47:32.326Z,18.90
2022-12-14T07:48:32.326Z,19.00
2022-12-14T07:49:32.311Z,19.30
2022-12-14T07:50:32.300Z,19.00
2022-12-14T07:51:32.326Z,18.60
2022-12-14T07:52:37.260Z,19.10
2022-12-14T07:53:33.269Z,19.30
2022-12-14T07:54:32.277Z,18.80
2022-12-14T07:55:32.247Z,19.70
2022-12-14T07:56:32.271Z,19.50
2022-12-14T07:57:32.243Z,19.30
2022-12-14T07:58:32.225Z,19.10
2022-12-14T07:59:32.245Z,18.10
2022-12-14T08:00:32.202Z,18.60
2022-12-14T08:01:32.394Z,18.60
2022-12-14T08:02:32.302Z,18.30
2022-12-14T08:03:32.449Z,19.00
2022-12-14T08:04:32.190Z,17.70
2022-12-14T08:05:32.142Z,18.00
2022-12-14T08:06:32.155Z,17.60
2022-12-14T08:07:32.123Z,18.40
2022-12-14T08:08:32.113Z,18.60
2022-12-14T08:09:32.103Z,18.50
2022-12-14T08:10:35.755Z,17.30
2022-12-14T08:11:33.107Z,17.90
2022-12-14T08:12:32.067Z,18.80
2022-12-14T08:13:32.396Z,18.90
2022-12-14T08:14:32.049Z,18.50
2022-12-14T08:15:32.088Z,18.10
2022-12-14T08:16:32.118Z,18.40
2022-12-14T08:17:32.017Z,19.40
2022-12-14T08:18:32.004Z,19.20
2022-12-14T08:19:31.991Z,19.00
2022-12-14T08:20:31.990Z,18.60
2022-12-14T08:21:32.000Z,19.10
2022-12-14T08:22:31.984Z,19.20
2022-12-14T08:23:32.575Z,18.10
2022-12-14T08:24:31.936Z,19.90
2022-12-14T08:25:31.930Z,18.50
2022-12-14T08:26:35.840Z,18.80
2022-12-14T08:27:31.907Z,18.20
2022-12-14T08:28:31.894Z,18.30
2022-12-14T08:29:31.899Z,18.30
2022-12-14T08:30:31.873Z,18.60
2022-12-14T08:31:32.040Z,18.90
2022-12-14T08:32:34.440Z,19.50
2022-12-14T08:33:32.403Z,18.30
2022-12-14T08:34:31.829Z,19.20
2022-12-14T08:35:31.826Z,18.50
2022-12-14T08:36:31.804Z,18.30
2022-12-14T08:37:31.802Z,18.30
2022-12-14T08:38:31.807Z,18.50
2022-12-14T08:39:31.773Z,18.70
2022-12-14T08:40:31.769Z,18.10
2022-12-14T08:41:31.782Z,18.40
2022-12-14T08:42:31.744Z,18.20
2022-12-14T08:43:32.113Z,18.00
2022-12-14T08:44:31.718Z,17.90
2022-12-14T08:45:31.704Z,18.50
2022-12-14T08:46:31.815Z,17.90
2022-12-14T08:47:31.713Z,17.60
2022-12-14T08:48:31.684Z,18.40
2022-12-14T08:49:32.548Z,17.70
2022-12-14T08:50:31.654Z,17.70
2022-12-14T08:51:31.667Z,18.40
2022-12-14T08:52:31.636Z,17.30
2022-12-14T08:53:32.571Z,18.10
2022-12-14T08:54:31.636Z,15.80
2022-12-14T08:55:38.287Z,18.40
2022-12-14T08:56:32.612Z,18.20
2022-12-14T08:57:31.578Z,16.70
2022-12-14T08:58:31.576Z,17.50
2022-12-14T09:00:00.340Z,17.30
2022-12-14T09:00:32.660Z,17.40
2022-12-14T09:01:34.141Z,17.80
2022-12-14T09:02:31.659Z,17.20
2022-12-14T09:03:32.103Z,17.80
2022-12-14T09:04:31.513Z,17.50
2022-12-14T09:05:31.523Z,17.70
2022-12-14T09:06:31.503Z,18.30
2022-12-14T09:07:31.473Z,17.60
2022-12-14T09:08:31.464Z,17.50
2022-12-14T09:09:31.450Z,17.60
2022-12-14T09:10:31.446Z,18.00
2022-12-14T09:11:31.451Z,16.70
2022-12-14T09:12:31.417Z,17.90
2022-12-14T09:13:31.826Z,18.40
2022-12-14T09:14:31.420Z,16.60
2022-12-14T09:15:31.387Z,17.10
2022-12-14T09:16:31.422Z,17.40
2022-12-14T09:17:31.388Z,16.50
2022-12-14T09:18:31.876Z,17.30
2022-12-14T09:19:31.343Z,17.70
2022-12-14T09:20:31.334Z,17.30
2022-12-14T09:21:31.368Z,17.10
2022-12-14T09:22:31.320Z,17.00
2022-12-14T09:23:31.900Z,16.70
2022-12-14T09:24:31.299Z,16.80
2022-12-14T09:25:31.278Z,16.80
2022-12-14T09:26:31.276Z,17.30
2022-12-14T09:27:31.287Z,16.30
2022-12-14T09:28:31.289Z,17.20
2022-12-14T09:29:31.239Z,17.30
2022-12-14T09:30:31.234Z,16.40
2022-12-14T09:31:31.256Z,17.40
2022-12-14T09:32:31.207Z,17.20
2022-12-14T09:33:31.697Z,16.60
2022-12-14T09:34:31.183Z,16.70
2022-12-14T09:35:31.178Z,17.70
2022-12-14T09:36:31.160Z,17.90
2022-12-14T09:37:31.150Z,17.00
2022-12-14T09:38:31.170Z,17.90
2022-12-14T09:39:31.159Z,19.00
2022-12-14T09:40:31.152Z,18.80
2022-12-14T09:41:31.121Z,18.70
2022-12-14T09:42:31.096Z,19.40
2022-12-14T09:43:37.078Z,18.70
2022-12-14T09:44:32.094Z,18.70
2022-12-14T09:45:31.138Z,17.80
2022-12-14T09:46:31.173Z,18.30
2022-12-14T09:47:31.045Z,17.20
2022-12-14T09:48:31.762Z,17.10
2022-12-14T09:49:31.029Z,16.30
2022-12-14T09:50:31.021Z,17.40
2022-12-14T09:51:31.111Z,17.10
2022-12-14T09:52:31.021Z,16.60
2022-12-14T09:53:31.346Z,16.70
2022-12-14T09:54:30.966Z,16.70
2022-12-14T09:55:30.957Z,15.90
2022-12-14T09:56:30.971Z,15.90
2022-12-14T09:57:30.958Z,16.30
2022-12-14T09:58:31.384Z,16.50
2022-12-14T09:59:30.937Z,15.60
2022-12-14T10:00:30.899Z,15.10
2022-12-14T10:01:31.022Z,15.70
2022-12-14T10:02:32.291Z,16.60
2022-12-14T10:03:31.522Z,16.10
2022-12-14T10:04:30.905Z,15.60
2022-12-14T10:05:30.844Z,15.50
2022-12-14T10:06:30.867Z,16.70
2022-12-14T10:07:34.345Z,17.10
2022-12-14T10:08:31.297Z,15.70
2022-12-14T10:09:30.803Z,16.60
2022-12-14T10:10:30.813Z,16.00
2022-12-14T10:11:30.808Z,15.80
2022-12-14T10:12:34.228Z,16.20
2022-12-14T10:13:31.387Z,16.90
2022-12-14T10:14:30.761Z,16.10
2022-12-14T10:15:30.759Z,16.20
2022-12-14T10:16:30.800Z,15.40
2022-12-14T10:17:30.753Z,16.70
2022-12-14T10:19:31.765Z,15.10
2022-12-14T10:20:30.684Z,15.60
2022-12-14T10:21:30.678Z,15.60
2022-12-14T10:22:30.688Z,15.30
2022-12-14T10:23:30.654Z,14.70
2022-12-14T10:24:30.648Z,14.50
2022-12-14T10:25:30.633Z,14.70
2022-12-14T10:26:30.619Z,14.20
2022-12-14T10:27:38.118Z,14.20
2022-12-14T10:28:32.207Z,14.90
2022-12-14T10:29:30.589Z,14.50
2022-12-14T10:30:30.578Z,14.40
2022-12-14T10:31:30.630Z,14.50
2022-12-14T10:32:30.583Z,13.90
2022-12-14T10:33:30.558Z,14.20
2022-12-14T10:34:30.531Z,14.70
2022-12-14T10:35:30.523Z,15.20
2022-12-14T10:36:30.530Z,15.10
2022-12-14T10:37:30.507Z,14.30
2022-12-14T10:38:30.962Z,15.00
2022-12-14T10:39:30.477Z,14.60
2022-12-14T10:40:34.077Z,15.60
2022-12-14T10:41:30.457Z,15.40
2022-12-14T10:42:30.461Z,15.20
2022-12-14T10:43:30.432Z,15.10
2022-12-14T10:44:30.447Z,15.40
2022-12-14T10:45:40.394Z,14.20
2022-12-14T10:46:31.493Z,15.00
2022-12-14T10:47:30.392Z,15.00
2022-12-14T10:48:30.783Z,14.30
2022-12-14T10:49:30.376Z,14.00
2022-12-14T10:50:30.384Z,14.80
2022-12-14T10:51:30.349Z,17.00
2022-12-14T10:52:30.356Z,17.50
2022-12-14T10:53:31.690Z,16.70
2022-12-14T10:54:30.314Z,16.10
2022-12-14T10:55:30.305Z,16.20
2022-12-14T10:56:30.417Z,17.60
2022-12-14T10:57:30.420Z,18.40
2022-12-14T10:58:30.773Z,18.40
2022-12-14T10:59:38.562Z,17.70
2022-12-14T11:00:31.285Z,18.90
2022-12-14T11:01:30.417Z,19.10
2022-12-14T11:02:30.421Z,18.60
2022-12-14T11:03:30.320Z,19.80
2022-12-14T11:04:30.208Z,19.00
2022-12-14T11:05:36.004Z,18.70
2022-12-14T11:06:31.209Z,19.80
2022-12-14T11:07:30.335Z,18.30
2022-12-14T11:08:30.531Z,19.10
2022-12-14T11:09:30.151Z,18.50
2022-12-14T11:10:30.142Z,19.10
2022-12-14T11:11:30.227Z,18.30
2022-12-14T11:12:30.127Z,18.90
2022-12-14T11:13:30.103Z,18.90
2022-12-14T11:14:30.101Z,19.30
2022-12-14T11:15:30.084Z,19.30
2022-12-14T11:16:35.717Z,18.60
2022-12-14T11:17:31.320Z,18.50
2022-12-14T11:18:30.531Z,17.70
2022-12-14T11:19:30.043Z,17.00
2022-12-14T11:20:30.039Z,18.50
2022-12-14T11:21:30.024Z,17.30
2022-12-14T11:22:30.032Z,17.40
2022-12-14T11:23:30.003Z,17.20
2022-12-14T11:24:29.984Z,16.90
2022-12-14T11:25:29.979Z,16.50
2022-12-14T11:26:29.975Z,16.50
2022-12-14T11:27:29.981Z,17.00
2022-12-14T11:28:36.017Z,16.10
2022-12-14T11:29:31.013Z,16.30
2022-12-14T11:30:29.957Z,15.90
2022-12-14T11:31:29.953Z,16.20
2022-12-14T11:32:29.902Z,16.10
2022-12-14T11:33:29.894Z,15.90
2022-12-14T11:34:29.915Z,15.20
2022-12-14T11:35:29.872Z,15.70
2022-12-14T11:36:29.861Z,16.00
2022-12-14T11:37:29.850Z,16.20
2022-12-14T11:38:30.243Z,17.40
2022-12-14T11:39:29.828Z,17.20
2022-12-14T11:40:29.839Z,16.50
2022-12-14T11:41:29.813Z,17.70
2022-12-14T11:42:29.791Z,16.80
2022-12-14T11:43:29.785Z,17.40
2022-12-14T11:44:29.790Z,16.50
2022-12-14T11:45:29.762Z,16.90
2022-12-14T11:46:29.819Z,18.20
2022-12-14T11:47:29.734Z,17.70
2022-12-14T11:48:30.119Z,18.20
2022-12-14T11:49:29.742Z,17.10
2022-12-14T11:50:29.703Z,18.70
2022-12-14T11:51:29.702Z,17.80
2022-12-14T11:52:29.716Z,18.50
2022-12-14T11:53:29.677Z,18.20
2022-12-14T11:54:29.683Z,18.20
2022-12-14T11:55:29.668Z,18.80
2022-12-14T11:56:29.666Z,16.90
2022-12-14T11:57:29.666Z,18.00
2022-12-14T11:58:30.046Z,17.80
2022-12-14T11:59:29.610Z,17.70
2022-12-14T12:00:29.616Z,17.50
2022-12-14T12:01:29.663Z,17.30
2022-12-14T12:02:29.605Z,15.90
2022-12-14T12:03:29.618Z,17.00
2022-12-14T12:04:29.584Z,16.80
2022-12-14T12:05:29.564Z,17.10
2022-12-14T12:06:29.554Z,16.70
2022-12-14T12:07:29.557Z,16.70
2022-12-14T12:08:29.882Z,15.30
2022-12-14T12:09:29.498Z,15.30
2022-12-14T12:10:29.496Z,15.00
2022-12-14T12:11:29.479Z,15.60
2022-12-14T12:12:29.487Z,16.00
2022-12-14T12:13:29.464Z,16.70
2022-12-14T12:14:29.446Z,16.50
2022-12-14T12:15:29.498Z,15.80
2022-12-14T12:16:29.519Z,15.30
2022-12-14T12:17:29.415Z,15.30
2022-12-14T12:18:29.901Z,14.50
2022-12-14T12:19:29.391Z,15.00
2022-12-14T12:20:29.399Z,15.20
2022-12-14T12:21:29.370Z,17.00
2022-12-14T12:22:29.363Z,16.20
2022-12-14T12:23:29.717Z,17.70
2022-12-14T12:24:29.344Z,17.00
2022-12-14T12:25:35.187Z,17.50
2022-12-14T12:26:30.317Z,17.00
2022-12-14T12:27:29.305Z,16.50
2022-12-14T12:28:29.760Z,17.60
2022-12-14T12:29:29.288Z,17.90
2022-12-14T12:30:29.276Z,16.90
2022-12-14T12:31:29.294Z,16.90
2022-12-14T12:32:29.257Z,17.10
2022-12-14T12:33:29.263Z,17.00
2022-12-14T12:34:29.230Z,17.10
2022-12-14T12:35:29.222Z,17.00
2022-12-14T12:36:29.204Z,17.40
2022-12-14T12:37:29.220Z,17.30
2022-12-14T12:38:29.780Z,17.50
2022-12-14T12:39:29.175Z,17.30
2022-12-14T12:40:29.186Z,17.10
2022-12-14T12:41:29.800Z,15.10
2022-12-14T12:42:29.140Z,14.80
2022-12-14T12:43:29.137Z,14.10
2022-12-14T12:44:29.120Z,14.80
2022-12-14T12:45:29.138Z,14.20
2022-12-14T12:46:29.157Z,14.00
2022-12-14T12:47:38.425Z,14.20
2022-12-14T12:48:30.453Z,14.90
2022-12-14T12:49:29.089Z,14.90
2022-12-14T12:50:29.053Z,14.50
2022-12-14T12:51:29.045Z,14.30
2022-12-14T12:52:29.034Z,14.60
2022-12-14T12:53:29.029Z,14.30
2022-12-14T12:54:29.041Z,15.80